createdAt,value
2017-02-14T00:00:07.472Z,73976
2017-02-14T00:00:17.294Z,73975
2017-02-14T00:00:27.523Z,73975
2017-02-14T00:00:37.759Z,73977
2017-02-14T00:00:48.311Z,73972
2017-02-14T00:00:58.872Z,73979
2017-02-14T00:01:09.439Z,73971
2017-02-14T00:01:19.616Z,73977
2017-02-14T00:01:30.168Z,73976
2017-02-14T00:01:40.741Z,73974
2017-02-14T00:01:51.335Z,73978
2017-02-14T00:02:01.881Z,73982
2017-02-14T00:02:12.427Z,73974
2017-02-14T00:02:23.000Z,73979
2017-02-14T00:02:33.585Z,73977
2017-02-14T00:02:44.144Z,73977
2017-02-14T00:02:54.701Z,73972
2017-02-14T00:03:05.283Z,73978
2017-02-14T00:03:15.150Z,73973
2017-02-14T00:03:25.713Z,73978
2017-02-14T00:03:36.303Z,73976
2017-02-14T00:03:46.879Z,73978
2017-02-14T00:03:57.425Z,73977
2017-02-14T00:04:08.017Z,73978
2017-02-14T00:04:18.575Z,73977
2017-02-14T00:04:28.745Z,73975
2017-02-14T00:04:38.957Z,73981
2017-02-14T00:04:49.571Z,73982
2017-02-14T00:05:00.111Z,73980
2017-02-14T00:05:10.710Z,73984
2017-02-14T00:05:21.313Z,73981
2017-02-14T00:05:31.874Z,73977
2017-02-14T00:05:42.440Z,73981
2017-02-14T00:05:52.994Z,73975
2017-02-14T00:06:03.524Z,73980
2017-02-14T00:06:14.054Z,73979
2017-02-14T00:06:24.622Z,73980
2017-02-14T00:06:35.163Z,73978
2017-02-14T00:06:45.737Z,73977
2017-02-14T00:06:56.327Z,73976
2017-02-14T00:07:06.935Z,73972
2017-02-14T00:07:17.116Z,73974
2017-02-14T00:07:27.685Z,73979
2017-02-14T00:07:38.278Z,73972
2017-02-14T00:07:48.862Z,73978
2017-02-14T00:07:59.435Z,73973
2017-02-14T00:08:09.247Z,73974
2017-02-14T00:08:19.822Z,73977
2017-02-14T00:08:30.383Z,73970
2017-02-14T00:08:40.572Z,73976
2017-02-14T00:08:51.089Z,73975
2017-02-14T00:09:01.669Z,73976
2017-02-14T00:09:12.217Z,73975
2017-02-14T00:09:22.802Z,73978
2017-02-14T00:09:33.050Z,73977
2017-02-14T00:09:43.646Z,73972
2017-02-14T00:09:54.173Z,73978
2017-02-14T00:10:04.346Z,73971
2017-02-14T00:10:14.616Z,73979
2017-02-14T00:10:25.189Z,73975
2017-02-14T00:10:35.786Z,73975
2017-02-14T00:10:46.378Z,73981
2017-02-14T00:10:56.906Z,73978
2017-02-14T00:11:07.099Z,73977
2017-02-14T00:11:17.675Z,73978
2017-02-14T00:11:28.221Z,73974
2017-02-14T00:11:38.413Z,73981
2017-02-14T00:11:48.994Z,73978
2017-02-14T00:11:59.561Z,73981
2017-02-14T00:12:10.176Z,73979
2017-02-14T00:12:20.419Z,73980
2017-02-14T00:12:31.011Z,73982
2017-02-14T00:12:41.592Z,73979
2017-02-14T00:12:52.167Z,73982
2017-02-14T00:13:02.735Z,73981
2017-02-14T00:13:13.300Z,73980
2017-02-14T00:13:23.550Z,73981
2017-02-14T00:13:34.083Z,73980
2017-02-14T00:13:44.662Z,73984
2017-02-14T00:13:54.890Z,73980
2017-02-14T00:14:05.107Z,73981
2017-02-14T00:14:14.951Z,73977
2017-02-14T00:14:25.512Z,73983
2017-02-14T00:14:35.732Z,73980
2017-02-14T00:14:45.921Z,73985
2017-02-14T00:14:56.111Z,73980
2017-02-14T00:15:06.272Z,73979
2017-02-14T00:15:16.779Z,73981
2017-02-14T00:15:27.309Z,73981
2017-02-14T00:15:37.885Z,73977
2017-02-14T00:15:48.441Z,73985
2017-02-14T00:15:58.618Z,73982
2017-02-14T00:16:09.197Z,73983
2017-02-14T00:16:19.760Z,73982
2017-02-14T00:16:30.325Z,73985
2017-02-14T00:16:40.882Z,73986
2017-02-14T00:16:51.424Z,73988
2017-02-14T00:17:01.951Z,73985
2017-02-14T00:17:12.563Z,73986
2017-02-14T00:17:23.132Z,73985
2017-02-14T00:17:33.727Z,73982
2017-02-14T00:17:44.310Z,73986
2017-02-14T00:17:54.865Z,73986
2017-02-14T00:18:05.075Z,73987
2017-02-14T00:18:15.637Z,73985
2017-02-14T00:18:26.223Z,73986
2017-02-14T00:18:36.773Z,73986
2017-02-14T00:18:47.008Z,73985
2017-02-14T00:18:57.588Z,73984
2017-02-14T00:19:08.131Z,73983
2017-02-14T00:19:18.677Z,73984
2017-02-14T00:19:29.285Z,73985
2017-02-14T00:19:39.812Z,73983
2017-02-14T00:19:50.015Z,73985
2017-02-14T00:20:00.178Z,73993
2017-02-14T00:20:10.775Z,73988
2017-02-14T00:20:21.352Z,73988
2017-02-14T00:20:31.937Z,73992
2017-02-14T00:20:42.518Z,73995
2017-02-14T00:20:53.118Z,73995
2017-02-14T00:21:03.646Z,73989
2017-02-14T00:21:14.249Z,73990
2017-02-14T00:21:24.830Z,73988
2017-02-14T00:21:35.031Z,73990
2017-02-14T00:21:45.611Z,73991
2017-02-14T00:21:56.151Z,73988
2017-02-14T00:22:06.751Z,73988
2017-02-14T00:22:17.329Z,73991
2017-02-14T00:22:27.974Z,73989
2017-02-14T00:22:38.545Z,73992
2017-02-14T00:22:49.157Z,73990
2017-02-14T00:22:59.719Z,73990
2017-02-14T00:23:09.887Z,73991
2017-02-14T00:23:20.100Z,73989
2017-02-14T00:23:30.656Z,73993
2017-02-14T00:23:40.845Z,73991
2017-02-14T00:23:51.426Z,73989
2017-02-14T00:24:01.961Z,73994
2017-02-14T00:24:12.154Z,73990
2017-02-14T00:24:22.753Z,73989
2017-02-14T00:24:33.290Z,73991
2017-02-14T00:24:43.846Z,73989
2017-02-14T00:24:54.422Z,73995
2017-02-14T00:25:05.045Z,73987
2017-02-14T00:25:15.257Z,73988
2017-02-14T00:25:25.468Z,73992
2017-02-14T00:25:36.070Z,73985
2017-02-14T00:25:46.272Z,73989
2017-02-14T00:25:56.467Z,73987
2017-02-14T00:26:07.053Z,73988
2017-02-14T00:26:16.886Z,73990
2017-02-14T00:26:27.450Z,73990
2017-02-14T00:26:38.019Z,73987
2017-02-14T00:26:48.557Z,73991
2017-02-14T00:26:59.136Z,73984
2017-02-14T00:27:09.701Z,73987
2017-02-14T00:27:19.936Z,73988
2017-02-14T00:27:30.488Z,73991
2017-02-14T00:27:41.076Z,73990
2017-02-14T00:27:51.664Z,73992
2017-02-14T00:28:02.285Z,73989
2017-02-14T00:28:12.827Z,73992
2017-02-14T00:28:23.028Z,73993
2017-02-14T00:28:33.627Z,73991
2017-02-14T00:28:44.204Z,73993
2017-02-14T00:28:54.729Z,73990
2017-02-14T00:29:04.910Z,73986
2017-02-14T00:29:15.105Z,73991
2017-02-14T00:29:25.707Z,73989
2017-02-14T00:29:36.250Z,73988
2017-02-14T00:29:46.864Z,73994
2017-02-14T00:29:57.433Z,73990
2017-02-14T00:30:08.006Z,73989
2017-02-14T00:30:18.599Z,73989
2017-02-14T00:30:29.186Z,73988
2017-02-14T00:30:39.783Z,73991
2017-02-14T00:30:50.326Z,73992
2017-02-14T00:31:00.944Z,73990
2017-02-14T00:31:11.150Z,73989
2017-02-14T00:31:21.384Z,73987
2017-02-14T00:31:31.954Z,73989
2017-02-14T00:31:42.521Z,73991
2017-02-14T00:31:53.137Z,73990
2017-02-14T00:32:03.719Z,73988
2017-02-14T00:32:13.553Z,73991
2017-02-14T00:32:24.132Z,73989
2017-02-14T00:32:34.693Z,73991
2017-02-14T00:32:44.955Z,73989
2017-02-14T00:32:55.557Z,73992
2017-02-14T00:33:06.126Z,73988
2017-02-14T00:33:16.310Z,73990
2017-02-14T00:33:26.874Z,73993
2017-02-14T00:33:37.435Z,73994
2017-02-14T00:33:48.012Z,73991
2017-02-14T00:33:58.562Z,73996
2017-02-14T00:34:09.120Z,73993
2017-02-14T00:34:19.295Z,73992
2017-02-14T00:34:29.853Z,73997
2017-02-14T00:34:40.411Z,73992
2017-02-14T00:34:50.938Z,73996
2017-02-14T00:35:01.551Z,73998
2017-02-14T00:35:11.751Z,73991
2017-02-14T00:35:21.571Z,73995
2017-02-14T00:35:32.160Z,73994
2017-02-14T00:35:42.755Z,73995
2017-02-14T00:35:52.586Z,73998
2017-02-14T00:36:03.188Z,73998
2017-02-14T00:36:13.736Z,73994
2017-02-14T00:36:24.314Z,73995
2017-02-14T00:36:34.872Z,73996
2017-02-14T00:36:45.448Z,74003
2017-02-14T00:36:55.994Z,74000
2017-02-14T00:37:06.177Z,73997
2017-02-14T00:37:16.774Z,74002
2017-02-14T00:37:27.346Z,73997
2017-02-14T00:37:37.933Z,74000
2017-02-14T00:37:48.483Z,74003
2017-02-14T00:37:59.077Z,74002
2017-02-14T00:38:09.663Z,74001
2017-02-14T00:38:19.863Z,74000
2017-02-14T00:38:30.451Z,74004
2017-02-14T00:38:41.048Z,74003
2017-02-14T00:38:51.644Z,73999
2017-02-14T00:39:02.240Z,74001
2017-02-14T00:39:12.856Z,74002
2017-02-14T00:39:23.084Z,74001
2017-02-14T00:39:33.681Z,74002
2017-02-14T00:39:44.273Z,74003
2017-02-14T00:39:54.864Z,74003
2017-02-14T00:40:05.475Z,74004
2017-02-14T00:40:16.070Z,74004
2017-02-14T00:40:26.704Z,74004
2017-02-14T00:40:37.247Z,74002
2017-02-14T00:40:47.858Z,74004
2017-02-14T00:40:58.433Z,74004
2017-02-14T00:41:09.022Z,74005
2017-02-14T00:41:19.209Z,74004
2017-02-14T00:41:29.800Z,74005
2017-02-14T00:41:40.392Z,74000
2017-02-14T00:41:50.968Z,74004
2017-02-14T00:42:01.563Z,73999
2017-02-14T00:42:11.749Z,74005
2017-02-14T00:42:21.949Z,74000
2017-02-14T00:42:32.561Z,74004
2017-02-14T00:42:43.187Z,74002
2017-02-14T00:42:53.752Z,74007
2017-02-14T00:43:04.333Z,74006
2017-02-14T00:43:14.125Z,74007
2017-02-14T00:43:24.320Z,74007
2017-02-14T00:43:34.910Z,74005
2017-02-14T00:43:45.505Z,74005
2017-02-14T00:43:56.099Z,74003
2017-02-14T00:44:06.280Z,74005
2017-02-14T00:44:16.496Z,74009
2017-02-14T00:44:27.082Z,74006
2017-02-14T00:44:37.290Z,74006
2017-02-14T00:44:47.480Z,74006
2017-02-14T00:44:58.066Z,74009
2017-02-14T00:45:07.910Z,74011
2017-02-14T00:45:18.475Z,74008
2017-02-14T00:45:29.055Z,74006
2017-02-14T00:45:39.601Z,74003
2017-02-14T00:45:50.156Z,74007
2017-02-14T00:46:00.756Z,74006
2017-02-14T00:46:10.979Z,74009
2017-02-14T00:46:21.203Z,74007
2017-02-14T00:46:31.813Z,74010
2017-02-14T00:46:42.439Z,74006
2017-02-14T00:46:53.022Z,74008
2017-02-14T00:47:03.614Z,74012
2017-02-14T00:47:14.205Z,74004
2017-02-14T00:47:24.764Z,74010
2017-02-14T00:47:35.352Z,74012
2017-02-14T00:47:45.946Z,74006
2017-02-14T00:47:56.512Z,74010
2017-02-14T00:48:07.101Z,74010
2017-02-14T00:48:17.307Z,74008
2017-02-14T00:48:27.893Z,74009
2017-02-14T00:48:38.468Z,74009
2017-02-14T00:48:49.035Z,74008
2017-02-14T00:48:59.610Z,74010
2017-02-14T00:49:10.159Z,74013
2017-02-14T00:49:20.363Z,74013
2017-02-14T00:49:30.941Z,74012
2017-02-14T00:49:41.503Z,74010
2017-02-14T00:49:52.053Z,74015
2017-02-14T00:50:02.622Z,74015
2017-02-14T00:50:13.196Z,74011
2017-02-14T00:50:23.772Z,74011
2017-02-14T00:50:34.300Z,74011
2017-02-14T00:50:44.831Z,74011
2017-02-14T00:50:55.430Z,74013
2017-02-14T00:51:05.983Z,74016
2017-02-14T00:51:16.218Z,74012
2017-02-14T00:51:26.778Z,74013
2017-02-14T00:51:37.360Z,74014
2017-02-14T00:51:47.924Z,74013
2017-02-14T00:51:58.487Z,74015
2017-02-14T00:52:09.056Z,74013
2017-02-14T00:52:19.209Z,74016
2017-02-14T00:52:29.783Z,74017
2017-02-14T00:52:40.371Z,74015
2017-02-14T00:52:50.921Z,74014
2017-02-14T00:53:01.564Z,74020
2017-02-14T00:53:12.144Z,74016
2017-02-14T00:53:22.342Z,74017
2017-02-14T00:53:32.962Z,74014
2017-02-14T00:53:43.518Z,74016
2017-02-14T00:53:54.048Z,74011
2017-02-14T00:54:04.649Z,74017
2017-02-14T00:54:14.822Z,74016
2017-02-14T00:54:24.664Z,74019
2017-02-14T00:54:35.218Z,74020
2017-02-14T00:54:45.409Z,74014
2017-02-14T00:54:55.957Z,74017
2017-02-14T00:55:06.529Z,74013
2017-02-14T00:55:17.131Z,74017
2017-02-14T00:55:27.713Z,74011
2017-02-14T00:55:38.301Z,74017
2017-02-14T00:55:48.906Z,74014
2017-02-14T00:55:59.517Z,74018
2017-02-14T00:56:09.716Z,74017
2017-02-14T00:56:20.312Z,74013
2017-02-14T00:56:30.889Z,74014
2017-02-14T00:56:41.472Z,74016
2017-02-14T00:56:52.030Z,74016
2017-02-14T00:57:02.566Z,74014
2017-02-14T00:57:12.748Z,74013
2017-02-14T00:57:23.334Z,74017
2017-02-14T00:57:33.911Z,74014
2017-02-14T00:57:44.486Z,74015
2017-02-14T00:57:55.051Z,74016
2017-02-14T00:58:05.644Z,74019
2017-02-14T00:58:15.851Z,74015
2017-02-14T00:58:26.456Z,74019
2017-02-14T00:58:37.001Z,74025
2017-02-14T00:58:47.599Z,74016
2017-02-14T00:58:58.152Z,74021
2017-02-14T00:59:08.759Z,74018
2017-02-14T00:59:18.996Z,74019
2017-02-14T00:59:29.160Z,74018
2017-02-14T00:59:39.726Z,74018
2017-02-14T00:59:50.296Z,74020
2017-02-14T01:00:00.861Z,74018
2017-02-14T01:00:11.431Z,74020
2017-02-14T01:00:21.960Z,74021
2017-02-14T01:00:32.163Z,74016
2017-02-14T01:00:42.772Z,74022
2017-02-14T01:00:52.926Z,74019
2017-02-14T01:01:03.495Z,74018
2017-02-14T01:01:14.041Z,74024
2017-02-14T01:01:24.631Z,74022
2017-02-14T01:01:35.206Z,74025
2017-02-14T01:01:45.763Z,74024
2017-02-14T01:01:55.990Z,74025
2017-02-14T01:02:05.870Z,74030
2017-02-14T01:02:15.724Z,74026
2017-02-14T01:02:26.256Z,74026
2017-02-14T01:02:36.832Z,74023
2017-02-14T01:02:47.412Z,74027
2017-02-14T01:02:57.996Z,74021
2017-02-14T01:03:08.583Z,74025
2017-02-14T01:03:18.768Z,74022
2017-02-14T01:03:29.310Z,74023
2017-02-14T01:03:39.888Z,74023
2017-02-14T01:03:50.445Z,74023
2017-02-14T01:04:00.969Z,74027
2017-02-14T01:04:11.179Z,74024
2017-02-14T01:04:21.806Z,74027
2017-02-14T01:04:32.379Z,74022
2017-02-14T01:04:42.615Z,74025
2017-02-14T01:04:53.176Z,74025
2017-02-14T01:05:03.766Z,74024
2017-02-14T01:05:13.995Z,74027
2017-02-14T01:05:24.574Z,74021
2017-02-14T01:05:35.186Z,74028
2017-02-14T01:05:45.738Z,74027
2017-02-14T01:05:55.954Z,74024
2017-02-14T01:06:06.554Z,74030
2017-02-14T01:06:16.760Z,74022
2017-02-14T01:06:27.309Z,74025
2017-02-14T01:06:37.855Z,74028
2017-02-14T01:06:48.425Z,74023
2017-02-14T01:06:59.044Z,74027
2017-02-14T01:07:09.592Z,74022
2017-02-14T01:07:20.175Z,74027
2017-02-14T01:07:30.774Z,74024
2017-02-14T01:07:41.381Z,74023
2017-02-14T01:07:51.951Z,74024
2017-02-14T01:08:02.537Z,74025
2017-02-14T01:08:12.734Z,74026
2017-02-14T01:08:22.938Z,74022
2017-02-14T01:08:33.522Z,74027
2017-02-14T01:08:44.112Z,74027
2017-02-14T01:08:54.688Z,74026
2017-02-14T01:09:05.268Z,74025
2017-02-14T01:09:15.842Z,74023
2017-02-14T01:09:26.406Z,74026
2017-02-14T01:09:36.605Z,74022
2017-02-14T01:09:47.202Z,74026
2017-02-14T01:09:57.764Z,74021
2017-02-14T01:10:08.318Z,74029
2017-02-14T01:10:18.544Z,74024
2017-02-14T01:10:29.106Z,74026
2017-02-14T01:10:39.635Z,74022
2017-02-14T01:10:49.811Z,74027
2017-02-14T01:11:00.364Z,74022
2017-02-14T01:11:10.941Z,74022
2017-02-14T01:11:20.811Z,74024
2017-02-14T01:11:31.432Z,74025
2017-02-14T01:11:42.033Z,74027
2017-02-14T01:11:52.614Z,74024
2017-02-14T01:12:02.798Z,74027
2017-02-14T01:12:12.984Z,74027
2017-02-14T01:12:23.583Z,74023
2017-02-14T01:12:33.838Z,74024
2017-02-14T01:12:44.467Z,74024
2017-02-14T01:12:55.034Z,74021
2017-02-14T01:13:05.594Z,74025
2017-02-14T01:13:15.788Z,74019
2017-02-14T01:13:26.375Z,74023
2017-02-14T01:13:36.941Z,74028
2017-02-14T01:13:47.529Z,74025
2017-02-14T01:13:58.141Z,74025
2017-02-14T01:14:08.282Z,74026
2017-02-14T01:14:18.834Z,74024
2017-02-14T01:14:29.405Z,74022
2017-02-14T01:14:39.955Z,74029
2017-02-14T01:14:50.113Z,74023
2017-02-14T01:15:00.661Z,74024
2017-02-14T01:15:10.498Z,74021
2017-02-14T01:15:21.040Z,74024
2017-02-14T01:15:31.221Z,74020
2017-02-14T01:15:41.781Z,74022
2017-02-14T01:15:52.384Z,74025
2017-02-14T01:16:02.916Z,74024
2017-02-14T01:16:13.531Z,74024
2017-02-14T01:16:23.702Z,74027
2017-02-14T01:16:33.881Z,74026
2017-02-14T01:16:44.450Z,74024
2017-02-14T01:16:55.001Z,74022
2017-02-14T01:17:05.519Z,74024
2017-02-14T01:17:16.130Z,74025
2017-02-14T01:17:26.323Z,74022
2017-02-14T01:17:36.962Z,74023
2017-02-14T01:17:47.541Z,74023
2017-02-14T01:17:58.096Z,74022
2017-02-14T01:18:08.685Z,74024
2017-02-14T01:18:18.522Z,74019
2017-02-14T01:18:29.099Z,74024
2017-02-14T01:18:39.637Z,74025
2017-02-14T01:18:50.239Z,74021
2017-02-14T01:19:00.799Z,74027
2017-02-14T01:19:11.382Z,74026
2017-02-14T01:19:22.021Z,74026
2017-02-14T01:19:32.574Z,74025
2017-02-14T01:19:42.742Z,74025
2017-02-14T01:19:53.289Z,74023
2017-02-14T01:20:03.485Z,74023
2017-02-14T01:20:13.351Z,74024
2017-02-14T01:20:23.916Z,74025
2017-02-14T01:20:33.697Z,74025
2017-02-14T01:20:44.285Z,74020
2017-02-14T01:20:54.860Z,74022
2017-02-14T01:21:05.495Z,74024
2017-02-14T01:21:15.336Z,74025
2017-02-14T01:21:25.549Z,74027
2017-02-14T01:21:36.133Z,74026
2017-02-14T01:21:46.740Z,74030
2017-02-14T01:21:57.320Z,74023
2017-02-14T01:22:07.897Z,74023
2017-02-14T01:22:17.722Z,74026
2017-02-14T01:22:28.259Z,74021
2017-02-14T01:22:38.491Z,74025
2017-02-14T01:22:49.082Z,74020
2017-02-14T01:22:59.622Z,74025
2017-02-14T01:23:10.196Z,74024
2017-02-14T01:23:20.443Z,74026
2017-02-14T01:23:31.039Z,74027
2017-02-14T01:23:41.271Z,74025
2017-02-14T01:23:51.854Z,74025
2017-02-14T01:24:02.055Z,74025
2017-02-14T01:24:12.237Z,74020
2017-02-14T01:24:22.402Z,74023
2017-02-14T01:24:32.955Z,74024
2017-02-14T01:24:43.471Z,74022
2017-02-14T01:24:54.072Z,74025
2017-02-14T01:25:04.625Z,74030
2017-02-14T01:25:15.204Z,74025
2017-02-14T01:25:25.779Z,74026
2017-02-14T01:25:36.321Z,74026
2017-02-14T01:25:46.861Z,74026
2017-02-14T01:25:57.468Z,74026
2017-02-14T01:26:08.077Z,74027
2017-02-14T01:26:18.652Z,74026
2017-02-14T01:26:29.213Z,74026
2017-02-14T01:26:39.763Z,74028
2017-02-14T01:26:50.298Z,74025
2017-02-14T01:27:00.472Z,74026
2017-02-14T01:27:10.288Z,74028
2017-02-14T01:27:20.859Z,74028
2017-02-14T01:27:31.418Z,74027
2017-02-14T01:27:41.639Z,74030
2017-02-14T01:27:52.195Z,74034
2017-02-14T01:28:02.797Z,74030
2017-02-14T01:28:13.009Z,74024
2017-02-14T01:28:23.577Z,74026
2017-02-14T01:28:34.152Z,74025
2017-02-14T01:28:44.691Z,74028
2017-02-14T01:28:55.257Z,74026
2017-02-14T01:29:05.489Z,74029
2017-02-14T01:29:15.666Z,74029
2017-02-14T01:29:26.195Z,74028
2017-02-14T01:29:36.755Z,74032
2017-02-14T01:29:47.359Z,74028
2017-02-14T01:29:57.943Z,74025
2017-02-14T01:30:08.516Z,74026
2017-02-14T01:30:19.114Z,74027
2017-02-14T01:30:29.676Z,74024
2017-02-14T01:30:40.254Z,74025
2017-02-14T01:30:50.810Z,74026
2017-02-14T01:31:01.048Z,74029
2017-02-14T01:31:11.667Z,74027
2017-02-14T01:31:22.179Z,74024
2017-02-14T01:31:32.723Z,74025
2017-02-14T01:31:42.901Z,74026
2017-02-14T01:31:53.494Z,74028
2017-02-14T01:32:04.094Z,74025
2017-02-14T01:32:14.641Z,74025
2017-02-14T01:32:24.901Z,74026
2017-02-14T01:32:35.509Z,74024
2017-02-14T01:32:46.118Z,74024
2017-02-14T01:32:56.753Z,74026
2017-02-14T01:33:07.008Z,74026
2017-02-14T01:33:16.851Z,74026
2017-02-14T01:33:27.048Z,74024
2017-02-14T01:33:37.641Z,74030
2017-02-14T01:33:48.235Z,74025
2017-02-14T01:33:58.412Z,74024
2017-02-14T01:34:08.975Z,74028
2017-02-14T01:34:19.179Z,74026
2017-02-14T01:34:29.787Z,74026
2017-02-14T01:34:40.403Z,74026
2017-02-14T01:34:50.988Z,74030
2017-02-14T01:35:01.559Z,74028
2017-02-14T01:35:12.097Z,74028
2017-02-14T01:35:22.657Z,74026
2017-02-14T01:35:33.201Z,74029
2017-02-14T01:35:43.804Z,74024
2017-02-14T01:35:53.976Z,74024
2017-02-14T01:36:04.536Z,74024
2017-02-14T01:36:15.149Z,74027
2017-02-14T01:36:25.733Z,74022
2017-02-14T01:36:36.272Z,74027
2017-02-14T01:36:46.471Z,74028
2017-02-14T01:36:57.059Z,74028
2017-02-14T01:37:07.658Z,74029
2017-02-14T01:37:17.863Z,74026
2017-02-14T01:37:28.463Z,74023
2017-02-14T01:37:39.072Z,74026
2017-02-14T01:37:49.622Z,74029
2017-02-14T01:38:00.174Z,74032
2017-02-14T01:38:10.396Z,74029
2017-02-14T01:38:21.021Z,74030
2017-02-14T01:38:31.259Z,74028
2017-02-14T01:38:41.803Z,74028
2017-02-14T01:38:52.402Z,74026
2017-02-14T01:39:02.964Z,74029
2017-02-14T01:39:12.460Z,74024
2017-02-14T01:39:23.039Z,74026
2017-02-14T01:39:33.625Z,74028
2017-02-14T01:39:44.216Z,74031
2017-02-14T01:39:54.835Z,74033
2017-02-14T01:40:05.371Z,74032
2017-02-14T01:40:15.926Z,74034
2017-02-14T01:40:26.526Z,74031
2017-02-14T01:40:37.067Z,74032
2017-02-14T01:40:47.653Z,74030
2017-02-14T01:40:58.228Z,74036
2017-02-14T01:41:08.789Z,74032
2017-02-14T01:41:18.614Z,74034
2017-02-14T01:41:29.182Z,74032
2017-02-14T01:41:39.775Z,74034
2017-02-14T01:41:50.321Z,74030
2017-02-14T01:42:00.892Z,74032
2017-02-14T01:42:11.116Z,74031
2017-02-14T01:42:21.695Z,74032
2017-02-14T01:42:31.873Z,74033
2017-02-14T01:42:42.436Z,74030
2017-02-14T01:42:52.969Z,74029
2017-02-14T01:43:03.187Z,74033
2017-02-14T01:43:13.397Z,74030
2017-02-14T01:43:23.554Z,74030
2017-02-14T01:43:34.120Z,74031
2017-02-14T01:43:44.682Z,74035
2017-02-14T01:43:55.267Z,74034
2017-02-14T01:44:05.837Z,74032
2017-02-14T01:44:15.991Z,74033
2017-02-14T01:44:26.564Z,74034
2017-02-14T01:44:37.130Z,74031
2017-02-14T01:44:47.743Z,74034
2017-02-14T01:44:58.342Z,74036
2017-02-14T01:45:08.491Z,74033
2017-02-14T01:45:18.749Z,74034
2017-02-14T01:45:28.963Z,74033
2017-02-14T01:45:39.544Z,74033
2017-02-14T01:45:50.112Z,74033
2017-02-14T01:46:00.338Z,74031
2017-02-14T01:46:10.220Z,74032
2017-02-14T01:46:20.075Z,74031
2017-02-14T01:46:30.616Z,74032
2017-02-14T01:46:41.216Z,74033
2017-02-14T01:46:51.819Z,74035
2017-02-14T01:47:02.449Z,74035
2017-02-14T01:47:13.040Z,74034
2017-02-14T01:47:23.249Z,74034
2017-02-14T01:47:33.817Z,74035
2017-02-14T01:47:44.360Z,74037
2017-02-14T01:47:54.912Z,74029
2017-02-14T01:48:05.524Z,74032
2017-02-14T01:48:15.721Z,74034
2017-02-14T01:48:25.524Z,74034
2017-02-14T01:48:36.089Z,74033
2017-02-14T01:48:46.663Z,74032
2017-02-14T01:48:57.214Z,74032
2017-02-14T01:49:07.761Z,74038
2017-02-14T01:49:18.337Z,74035
2017-02-14T01:49:28.897Z,74034
2017-02-14T01:49:39.468Z,74034
2017-02-14T01:49:50.030Z,74036
2017-02-14T01:50:00.251Z,74032
2017-02-14T01:50:10.479Z,74037
2017-02-14T01:50:20.315Z,74037
2017-02-14T01:50:30.871Z,74036
2017-02-14T01:50:41.450Z,74035
2017-02-14T01:50:52.015Z,74034
2017-02-14T01:51:02.619Z,74035
2017-02-14T01:51:13.208Z,74035
2017-02-14T01:51:23.828Z,74036
2017-02-14T01:51:34.410Z,74035
2017-02-14T01:51:45.004Z,74036
2017-02-14T01:51:55.207Z,74036
2017-02-14T01:52:05.770Z,74032
2017-02-14T01:52:15.248Z,74035
2017-02-14T01:52:25.444Z,74037
2017-02-14T01:52:36.015Z,74032
2017-02-14T01:52:46.606Z,74038
2017-02-14T01:52:57.202Z,74035
2017-02-14T01:53:07.391Z,74041
2017-02-14T01:53:17.979Z,74037
2017-02-14T01:53:28.144Z,74037
2017-02-14T01:53:38.748Z,74038
2017-02-14T01:53:48.950Z,74036
2017-02-14T01:53:59.534Z,74038
2017-02-14T01:54:10.126Z,74037
2017-02-14T01:54:20.696Z,74039
2017-02-14T01:54:31.243Z,74038
2017-02-14T01:54:41.854Z,74041
2017-02-14T01:54:52.387Z,74036
2017-02-14T01:55:02.950Z,74038
2017-02-14T01:55:12.799Z,74040
2017-02-14T01:55:23.007Z,74036
2017-02-14T01:55:33.200Z,74038
2017-02-14T01:55:43.353Z,74038
2017-02-14T01:55:53.537Z,74035
2017-02-14T01:56:03.731Z,74037
2017-02-14T01:56:13.926Z,74038
2017-02-14T01:56:23.768Z,74036
2017-02-14T01:56:34.322Z,74033
2017-02-14T01:56:44.858Z,74041
2017-02-14T01:56:55.411Z,74041
2017-02-14T01:57:06.010Z,74039
2017-02-14T01:57:16.620Z,74036
2017-02-14T01:57:26.843Z,74032
2017-02-14T01:57:37.415Z,74036
2017-02-14T01:57:47.935Z,74039
2017-02-14T01:57:58.526Z,74035
2017-02-14T01:58:09.094Z,74035
2017-02-14T01:58:18.959Z,74035
2017-02-14T01:58:29.511Z,74032
2017-02-14T01:58:40.054Z,74037
2017-02-14T01:58:50.613Z,74033
2017-02-14T01:59:01.159Z,74034
2017-02-14T01:59:11.732Z,74035
2017-02-14T01:59:22.270Z,74033
2017-02-14T01:59:32.507Z,74033
2017-02-14T01:59:43.028Z,74034
2017-02-14T01:59:53.618Z,74031
2017-02-14T02:00:04.208Z,74028
2017-02-14T02:00:14.804Z,74039
2017-02-14T02:00:25.375Z,74031
2017-02-14T02:00:35.578Z,74039
2017-02-14T02:00:46.111Z,74039
2017-02-14T02:00:56.699Z,74037
2017-02-14T02:01:07.258Z,74036
2017-02-14T02:01:17.828Z,74037
2017-02-14T02:01:28.386Z,74036
2017-02-14T02:01:38.976Z,74035
2017-02-14T02:01:49.568Z,74034
2017-02-14T02:02:00.155Z,74032
2017-02-14T02:02:10.739Z,74035
2017-02-14T02:02:20.952Z,74032
2017-02-14T02:02:31.495Z,74031
2017-02-14T02:02:42.096Z,74031
2017-02-14T02:02:52.698Z,74032
2017-02-14T02:03:03.271Z,74033
2017-02-14T02:03:13.873Z,74033
2017-02-14T02:03:24.418Z,74036
2017-02-14T02:03:34.630Z,74035
2017-02-14T02:03:45.191Z,74034
2017-02-14T02:03:55.750Z,74035
2017-02-14T02:04:06.323Z,74033
2017-02-14T02:04:16.141Z,74033
2017-02-14T02:04:26.703Z,74031
2017-02-14T02:04:37.291Z,74029
2017-02-14T02:04:47.512Z,74035
2017-02-14T02:04:58.085Z,74030
2017-02-14T02:05:08.325Z,74033
2017-02-14T02:05:18.840Z,74032
2017-02-14T02:05:29.346Z,74035
2017-02-14T02:05:39.932Z,74035
2017-02-14T02:05:50.498Z,74036
2017-02-14T02:06:01.072Z,74037
2017-02-14T02:06:11.677Z,74035
2017-02-14T02:06:22.218Z,74033
2017-02-14T02:06:32.847Z,74036
2017-02-14T02:06:43.433Z,74034
2017-02-14T02:06:54.058Z,74036
2017-02-14T02:07:04.678Z,74034
2017-02-14T02:07:14.867Z,74033
2017-02-14T02:07:25.387Z,74037
2017-02-14T02:07:36.013Z,74036
2017-02-14T02:07:46.288Z,74036
2017-02-14T02:07:56.847Z,74035
2017-02-14T02:08:07.407Z,74036
2017-02-14T02:08:17.278Z,74035
2017-02-14T02:08:27.834Z,74035
2017-02-14T02:08:38.421Z,74034
2017-02-14T02:08:49.010Z,74036
2017-02-14T02:08:59.599Z,74032
2017-02-14T02:09:10.144Z,74036
2017-02-14T02:09:20.707Z,74032
2017-02-14T02:09:31.260Z,74035
2017-02-14T02:09:41.850Z,74036
2017-02-14T02:09:52.397Z,74038
2017-02-14T02:10:03.027Z,74035
2017-02-14T02:10:13.227Z,74038
2017-02-14T02:10:23.832Z,74034
2017-02-14T02:10:34.392Z,74036
2017-02-14T02:10:44.977Z,74041
2017-02-14T02:10:55.549Z,74035
2017-02-14T02:11:06.093Z,74040
2017-02-14T02:11:16.651Z,74035
2017-02-14T02:11:26.833Z,74037
2017-02-14T02:11:37.048Z,74038
2017-02-14T02:11:47.644Z,74040
2017-02-14T02:11:58.206Z,74038
2017-02-14T02:12:08.421Z,74037
2017-02-14T02:12:19.000Z,74037
2017-02-14T02:12:29.600Z,74036
2017-02-14T02:12:40.196Z,74040
2017-02-14T02:12:50.776Z,74037
2017-02-14T02:13:01.351Z,74040
2017-02-14T02:13:11.910Z,74041
2017-02-14T02:13:22.467Z,74036
2017-02-14T02:13:33.079Z,74040
2017-02-14T02:13:43.234Z,74039
2017-02-14T02:13:53.796Z,74040
2017-02-14T02:14:04.388Z,74039
2017-02-14T02:14:14.606Z,74041
2017-02-14T02:14:25.157Z,74041
2017-02-14T02:14:35.741Z,74040
2017-02-14T02:14:46.350Z,74040